Time;durP1;ratioP1;P1;durP2;ratioP2;P2;SDS_P1;SDS_P2;PMS_P1;PMS_P2;Temp;Humidity;BMP_temperature;BMP_pressure;BME280_temperature;BME280_humidity;BME280_pressure;Samples;Min_cycle;Max_cycle;Signal;HPM_P1;HPM_P2
2023/03/09 00:00:36;;;;;;;;;;;;;;;7.22;100.00;98509.81;5045745;28;20033;-73
2023/03/09 00:03:01;;;;;;;;;;;;;;;7.13;100.00;98500.16;5042665;28;20011;-73
2023/03/09 00:05:27;;;;;;;;;;;;;;;7.10;100.00;98504.91;5044307;28;19945;-74
2023/03/09 00:07:54;;;;;;;;;;;;;;;7.03;100.00;98519.56;5033859;28;19916;-73
2023/03/09 00:10:20;;;;;;;;;;;;;;;6.74;100.00;98525.75;5043162;28;20434;-75
2023/03/09 00:12:45;;;;;;;;;;;;;;;6.62;100.00;98520.84;5044336;28;19972;-74
2023/03/09 00:15:11;;;;;;;;;;;;;;;6.51;100.00;98541.00;5042245;28;19929;-74
2023/03/09 00:17:36;;;;;;;;;;;;;;;6.54;100.00;98550.38;5045293;28;19920;-75
2023/03/09 00:20:18;;;;;;;;;;;;;;;6.50;100.00;98549.84;5042132;28;19999;-74
2023/03/09 00:22:49;;;;;;;;;;;;;;;6.61;100.00;98556.69;5039133;28;20479;-75
2023/03/09 00:25:15;;;;;;;;;;;;;;;6.77;100.00;98572.69;5042773;28;20020;-74
2023/03/09 00:27:41;;;;;;;;;;;;;;;6.91;100.00;98574.81;5044867;28;19916;-75
2023/03/09 00:30:08;;;;;;;;;;;;;;;7.07;100.00;98589.94;5031714;28;20376;-75
2023/03/09 00:32:33;;;;;;;;;;;;;;;7.14;100.00;98595.44;5044679;28;19917;-75
2023/03/09 00:34:59;;;;;;;;;;;;;;;7.27;100.00;98593.31;5042292;28;19925;-75
2023/03/09 00:37:24;;;;;;;;;;;;;;;7.35;100.00;98585.56;5043669;28;20006;-75
2023/03/09 00:39:50;;;;;;;;;;;;;;;7.34;100.00;98608.34;5043668;28;19917;-75
2023/03/09 00:42:15;;;;;;;;;;;;;;;7.16;100.00;98640.75;5041941;28;19925;-75
2023/03/09 00:44:40;;;;;;;;;;;;;;;7.12;100.00;98655.94;5044456;28;20011;-74
2023/03/09 00:47:06;;;;;;;;;;;;;;;7.09;100.00;98652.78;5041296;28;19917;-75
2023/03/09 00:49:31;;;;;;;;;;;;;;;7.24;100.00;98648.72;5044250;28;19920;-76
2023/03/09 00:51:57;;;;;;;;;;;;;;;7.35;100.00;98652.00;5036517;28;20380;-75
2023/03/09 00:54:22;;;;;;;;;;;;;;;7.51;100.00;98656.63;5042648;28;19952;-75
2023/03/09 00:56:48;;;;;;;;;;;;;;;7.64;100.00;98672.88;5043036;28;19916;-76
2023/03/09 00:59:13;;;;;;;;;;;;;;;7.69;100.00;98670.63;5041203;28;19917;-75
2023/03/09 01:01:39;;;;;;;;;;;;;;;7.72;100.00;98674.75;5026251;28;19928;-74
2023/03/09 01:04:06;;;;;;;;;;;;;;;7.75;100.00;98672.66;5039449;28;19921;-73
2023/03/09 01:06:31;;;;;;;;;;;;;;;7.74;100.00;98657.88;5043305;28;19969;-74
2023/03/09 01:08:57;;;;;;;;;;;;;;;7.78;100.00;98648.72;5041675;28;19956;-73
2023/03/09 01:11:22;;;;;;;;;;;;;;;7.79;100.00;98658.25;5042852;28;20022;-75
2023/03/09 01:13:49;;;;;;;21.55;11.57;;;;;;;7.89;100.00;98654.78;5025632;28;19916;-76
2023/03/09 01:16:15;;;;;;;17.08;11.57;;;;;;;7.94;100.00;98644.66;5040489;28;20481;-75
2023/03/09 01:18:41;;;;;;;17.70;11.30;;;;;;;8.01;100.00;98648.34;5025383;28;20025;-75
2023/03/09 01:21:07;;;;;;;;;;;;;;;8.11;100.00;98659.59;5044355;28;20020;-75
2023/03/09 01:23:33;;;;;;;;;;;;;;;8.12;100.00;98669.13;5025384;28;19924;-74
2023/03/09 01:26:00;;;;;;;;;;;;;;;8.08;100.00;98644.13;5017401;28;20282;-75
2023/03/09 01:28:25;;;;;;;;;;;;;;;8.17;100.00;98603.81;5031258;28;19928;-74
2023/03/09 01:30:51;;;;;;;;;;;;;;;8.13;100.00;98577.00;5036507;28;19920;-75
2023/03/09 01:33:17;;;;;;;;;;;;;;;8.17;100.00;98606.44;5040649;28;20352;-76
2023/03/09 01:35:42;;;;;;;;;;;;;;;8.17;100.00;98609.06;5031004;28;19975;-75
2023/03/09 01:38:08;;;;;;;;;;;;;;;8.19;100.00;98594.78;5043688;28;19963;-76
2023/03/09 01:40:34;;;;;;;;;;;;;;;8.25;100.00;98540.78;5025793;28;19928;-75
2023/03/09 01:43:20;;;;;;;;;;;;;;;8.23;100.00;98534.88;5044138;28;19929;-76
2023/03/09 01:45:48;;;;;;;;;;;;;;;8.22;100.00;98538.50;5043908;28;20302;-75
2023/03/09 01:48:14;;;;;;;;;;;;;;;8.20;100.00;98557.03;5023016;28;19987;-76
2023/03/09 01:50:41;;;;;;;;;;;;;;;8.07;100.00;98556.59;5030590;28;20401;-76
2023/03/09 01:53:17;;;;;;;;;;;;;;;8.10;100.00;98571.22;5020809;28;19921;-76
2023/03/09 01:55:45;;;;;;;;;;;;;;;8.15;100.00;98575.06;5036157;28;20263;-75
2023/03/09 01:58:17;;;;;;;;;;;;;;;8.21;100.00;98578.88;5021161;28;19925;-75
2023/03/09 02:00:45;;;;;;;;;;;;;;;8.20;100.00;98577.22;5020175;28;19968;-75
2023/03/09 02:03:14;;;;;;;;;;;;;;;8.15;100.00;98576.84;5019212;28;20171;-75
2023/03/09 02:05:43;;;;;;;;;;;;;;;8.19;100.00;98557.16;5023567;28;20024;-75
2023/03/09 02:08:10;;;;;;;;;;;;;;;8.12;100.00;98556.16;5022522;28;20317;-76
2023/03/09 02:10:43;;;;;;;;;;;;;;;8.03;100.00;98557.03;5030362;28;19929;-74
2023/03/09 02:13:10;;;;;;;;;;;;;;;7.93;100.00;98569.44;5019943;28;20388;-74
2023/03/09 02:15:36;;;;;;;;;;;;;;;7.76;100.00;98581.59;5026244;28;20281;-74
2023/03/09 02:18:04;;;;;;;;;;;;;;;7.72;100.00;98591.53;5021144;28;19952;-72
2023/03/09 02:20:50;;;;;;;;;;;;;;;7.62;100.00;98596.03;5019954;28;19937;-74
2023/03/09 02:23:31;;;;;;;;;;;;;;;7.62;100.00;98590.78;5035783;28;19921;-74
2023/03/09 02:26:16;;;;;;;;;;;;;;;7.63;100.00;98604.75;5022013;28;19921;-74
2023/03/09 02:28:41;;;;;;;;;;;;;;;7.50;100.00;98607.72;5018550;28;19968;-73
2023/03/09 02:31:07;;;;;;;;;;;;;;;7.45;100.00;98599.44;5023344;28;19921;-74
2023/03/09 02:33:33;;;;;;;;;;;;;;;7.46;100.00;98600.28;5019870;28;19926;-73
2023/03/09 02:36:00;;;;;;;;;;;;;;;7.37;100.00;98586.22;5021601;28;19921;-74
2023/03/09 02:38:26;;;;;;;;;;;;;;;7.29;100.00;98588.75;5020476;28;20044;-73
2023/03/09 02:40:55;;;;;;;;;;;;;;;7.25;100.00;98597.88;5030067;28;20316;-75
2023/03/09 02:43:24;;;;;;;;;;;;;;;7.30;100.00;98600.91;5021544;28;19972;-75
2023/03/09 02:45:51;;;;;;;;;;;;;;;7.35;100.00;98580.31;5020305;28;20374;-75
2023/03/09 02:48:16;;;;;;;;;;;;;;;7.43;100.00;98585.63;5023238;28;19927;-75
2023/03/09 02:50:43;;;;;;;;;;;;;;;7.51;100.00;98571.78;5023276;28;19924;-75
2023/03/09 02:53:09;;;;;;;;;;;;;;;7.54;100.00;98566.25;5022242;28;19921;-75
2023/03/09 02:55:35;;;;;;;;;;;;;;;7.55;100.00;98557.38;5030713;28;19936;-74
2023/03/09 02:58:03;;;;;;;;;;;;;;;7.52;100.00;98548.03;5019349;28;19929;-74
2023/03/09 03:00:29;;;;;;;;;;;;;;;7.50;100.00;98554.38;5024268;28;19932;-74
2023/03/09 03:02:55;;;;;;;;;;;;;;;7.36;100.00;98548.66;5020530;28;19924;-74
2023/03/09 03:05:20;;;;;;;;;;;;;;;7.35;100.00;98546.19;5020471;28;19921;-75
2023/03/09 03:07:46;;;;;;;;;;;;;;;7.43;100.00;98538.38;5020888;28;19917;-75
2023/03/09 03:10:11;;;;;;;;;;;;;;;7.49;100.00;98537.81;5022168;28;19931;-74
2023/03/09 03:12:37;;;;;;;;;;;;;;;7.49;100.00;98548.31;5021880;28;19925;-75
2023/03/09 03:15:04;;;;;;;;;;;;;;;7.44;100.00;98534.81;5018530;28;19975;-75
2023/03/09 03:17:30;;;;;;;;;;;;;;;7.48;100.00;98538.78;5017272;28;21501;-75
2023/03/09 03:19:55;;;;;;;;;;;;;;;7.43;100.00;98522.66;5016890;28;19960;-74
2023/03/09 03:22:21;;;;;;;;;;;;;;;7.32;100.00;98525.47;5020393;28;19980;-74
2023/03/09 03:24:47;;;;;;;;;;;;;;;7.17;100.00;98511.22;5022522;28;20279;-75
2023/03/09 03:27:13;;;;;;;;;;;;;;;7.22;100.00;98514.22;5021002;28;19927;-74
2023/03/09 03:29:39;;;;;;;;;;;;;;;7.22;100.00;98515.06;5029614;28;19971;-75
2023/03/09 03:32:04;;;;;;;;;;;;;;;7.23;100.00;98526.38;5022583;28;20385;-75
2023/03/09 03:34:30;;;;;;;;;;;;;;;7.20;100.00;98524.03;5026548;28;20059;-74
2023/03/09 03:36:56;;;;;;;;;;;;;;;7.09;100.00;98518.97;5023777;28;19928;-73
2023/03/09 03:39:23;;;;;;;;;;;;;;;6.79;100.00;98528.78;5020821;28;19983;-75
2023/03/09 03:41:54;;;;;;;;;;;;;;;6.72;100.00;98532.94;5029282;28;19921;-75
2023/03/09 03:44:20;;;;;;;;;;;;;;;6.65;100.00;98529.25;5021071;28;19922;-73
2023/03/09 03:46:46;;;;;;;;;;;;;;;6.58;100.00;98531.63;5029646;28;19928;-74
2023/03/09 03:49:11;;;;;;;;;;;;;;;6.60;100.00;98523.59;5035393;28;20108;-73
2023/03/09 03:51:39;;;;;;;;;;;;;;;6.55;100.00;98531.06;5039148;28;20366;-76
2023/03/09 03:54:04;;;;;;;;;;;;;;;6.48;100.00;98524.75;5042475;28;19960;-75
2023/03/09 03:56:30;;;;;;;;;;;;;;;6.37;100.00;98527.50;5029025;28;20712;-75
2023/03/09 03:58:58;;;;;;;;;;;;;;;6.27;100.00;98521.47;5040690;28;19975;-74
2023/03/09 04:01:24;;;;;;;;;;;;;;;6.31;100.00;98528.06;5039177;28;20310;-73
2023/03/09 04:03:54;;;;;;;;;;;;;;;6.33;100.00;98521.75;5026267;28;20305;-75
2023/03/09 04:06:20;;;;;;;;;;;;;;;6.43;100.00;98526.94;5030005;28;19921;-76
2023/03/09 04:08:47;;;;;;;;;;;;;;;6.47;100.00;98523.09;5038699;28;19928;-75
2023/03/09 04:11:13;;;;;;;;;;;;;;;6.44;100.00;98533.84;5031047;28;19924;-75
2023/03/09 04:13:46;;;;;;;;;;;;;;;6.44;100.00;98539.09;5024186;28;19948;-75
2023/03/09 04:16:12;;;;;;;;;;;;;;;6.42;100.00;98536.59;5031241;28;20293;-75
2023/03/09 04:18:38;;;;;;;;;;;;;;;6.41;100.00;98544.63;5033943;28;19921;-75
2023/03/09 04:21:04;;;;;;;;;;;;;;;6.49;100.00;98547.34;5023227;28;20011;-74
2023/03/09 04:23:29;;;;;;;;;;;;;;;6.60;100.00;98562.91;5030956;28;20369;-76
2023/03/09 04:25:58;;;;;;;;;;;;;;;6.65;100.00;98568.56;5040396;28;19921;-76
2023/03/09 04:28:31;;;;;;;;;;;;;;;6.64;100.00;98555.59;5030089;28;19975;-76
2023/03/09 04:30:57;;;;;;;;;;;;;;;6.67;100.00;98556.13;5033110;28;20290;-76
2023/03/09 04:33:24;;;;;;;;;;;;;;;6.66;100.00;98538.75;5033654;28;19928;-76
2023/03/09 04:35:50;;;;;;;;;;;;;;;6.66;100.00;98557.09;5044256;28;19916;-77
2023/03/09 04:38:21;;;;;;;;;;;;;;;6.58;100.00;98563.06;5029268;28;19962;-77
2023/03/09 04:40:48;;;;;;;;;;;;;;;6.55;100.00;98549.41;5034125;28;19924;-77
2023/03/09 04:43:14;;;;;;;;;;;;;;;6.61;100.00;98555.88;5027840;28;19932;-77
2023/03/09 04:45:41;;;;;;;;;;;;;;;6.45;100.00;98538.13;5027007;28;19974;-77
2023/03/09 04:48:06;;;;;;;;;;;;;;;6.50;100.00;98543.75;5045137;28;19922;-75
2023/03/09 04:50:34;;;;;;;;;;;;;;;6.47;100.00;98544.06;5026168;28;19920;-76
2023/03/09 04:53:03;;;;;;;;;;;;;;;6.52;100.00;98536.59;5044446;28;20393;-77
2023/03/09 04:55:30;;;;;;;;;;;;;;;6.42;100.00;98530.56;5031331;28;19983;-77
2023/03/09 04:57:58;;;;;;;;;;;;;;;6.51;100.00;98529.69;5028925;28;19932;-75
2023/03/09 05:00:24;;;;;;;;;;;;;;;6.54;100.00;98524.16;5041805;28;19921;-76
2023/03/09 05:02:50;;;;;;;;;;;;;;;6.51;100.00;98529.69;5032203;28;19943;-76
2023/03/09 05:05:16;;;;;;;;;;;;;;;6.49;100.00;98536.88;5034069;28;19921;-75
2023/03/09 05:07:42;;;;;;;;;;;;;;;6.39;100.00;98542.13;5025169;28;19990;-76
2023/03/09 05:10:09;;;;;;;;;;;;;;;6.37;100.00;98538.00;5026122;28;19921;-76
2023/03/09 05:12:37;;;;;;;;;;;;;;;6.38;100.00;98545.72;5038157;28;20325;-75
2023/03/09 05:15:06;;;;;;;;;;;;;;;6.35;100.00;98539.94;5022619;28;20333;-76
2023/03/09 05:17:34;;;;;;;;;;;;;;;6.21;100.00;98535.13;5025316;28;19921;-76
2023/03/09 05:20:00;;;;;;;;;;;;;;;6.02;100.00;98544.66;5043684;28;19921;-77
2023/03/09 05:22:26;;;;;;;;;;;;;;;6.03;100.00;98545.47;5041542;28;20254;-76
2023/03/09 05:24:52;;;;;;;;;;;;;;;6.14;100.00;98538.31;5028412;28;19931;-77
2023/03/09 05:27:17;;;;;;;;;;;;;;;5.99;100.00;98550.19;5041974;28;19999;-76
2023/03/09 05:29:43;;;;;;;;;;;;;;;6.02;100.00;98546.44;5031075;28;19928;-76
2023/03/09 05:32:09;;;;;;;;;;;;;;;6.15;100.00;98542.59;5043870;28;19925;-74
2023/03/09 05:34:36;;;;;;;;;;;;;;;6.08;100.00;98546.72;5025983;28;20278;-73
2023/03/09 05:37:02;;;;;;;;;;;;;;;5.98;100.00;98538.06;5025069;28;19920;-77
2023/03/09 05:39:29;;;;;;;;;;;;;;;5.74;100.00;98545.44;5030833;28;20351;-76
2023/03/09 05:41:54;;;;;;;;;;;;;;;5.76;100.00;98541.75;5028191;28;19923;-75
2023/03/09 05:44:27;;;;;;;;;;;;;;;5.68;100.00;98536.34;5040495;28;19970;-74
2023/03/09 05:46:53;;;;;;;;;;;;;;;5.61;100.00;98550.94;5028189;28;19964;-75
2023/03/09 05:49:19;;;;;;;;;;;;;;;5.57;100.00;98564.44;5037475;28;20003;-74
2023/03/09 05:51:44;;;;;;;;;;;;;;;5.45;100.00;98561.13;5040632;28;20371;-74
2023/03/09 05:54:10;;;;;;;;;;;;;;;5.33;100.00;98555.16;5044015;28;19921;-76
2023/03/09 05:56:38;;;;;;;;;;;;;;;5.28;100.00;98544.28;5040723;28;19921;-75
2023/03/09 05:59:04;;;;;;;;;;;;;;;5.06;100.00;98549.75;5027439;28;20328;-75
2023/03/09 06:01:30;;;;;;;;;;;;;;;5.14;100.00;98556.91;5021940;28;19932;-75
2023/03/09 06:04:05;;;;;;;;;;;;;;;5.11;100.00;98563.22;5022822;28;19944;-75
2023/03/09 06:06:32;;;;;;;;;;;;;;;5.08;100.00;98563.47;5025801;28;20046;-73
2023/03/09 06:08:57;;;;;;;;;;;;;;;5.13;100.00;98561.28;5032379;28;19963;-75
2023/03/09 06:11:24;;;;;;;;;;;;;;;5.18;100.00;98563.53;5017242;28;19921;-75
2023/03/09 06:13:52;;;;;;;;;;;;;;;5.35;100.00;98566.34;5019899;28;19921;-77
2023/03/09 06:16:18;;;;;;;;;;;;;;;5.29;100.00;98573.88;5034119;28;19944;-73
2023/03/09 06:18:43;;;;;;;;;;;;;;;5.18;100.00;98566.97;5045677;28;20392;-76
2023/03/09 06:21:10;;;;;;;;;;;;;;;5.19;100.00;98565.16;5029361;28;19927;-75
2023/03/09 06:23:36;;;;;;;;;;;;;;;5.24;100.00;98574.25;5007160;28;19924;-72
2023/03/09 06:26:04;;;;;;;;;;;;;;;5.32;100.00;98577.06;5023535;28;20003;-73
2023/03/09 06:28:29;;;;;;;;;;;;;;;5.34;100.00;98582.16;5041947;28;20349;-75
2023/03/09 06:30:55;;;;;;;;;;;;;;;5.27;100.00;98583.66;5041791;28;20012;-72
2023/03/09 06:33:21;;;;;;;;;;;;;;;5.27;100.00;98578.41;5023457;28;19925;-74
2023/03/09 06:35:55;;;;;;;;;;;;;;;5.36;100.00;98578.44;5040500;28;20281;-73
2023/03/09 06:38:22;;;;;;;;;;;;;;;5.34;100.00;98590.84;5039616;28;19920;-72
2023/03/09 06:40:52;;;;;;;;;;;;;;;5.34;100.00;98590.84;5029501;28;19982;-73
2023/03/09 06:43:18;;;;;;;;;;;;;;;5.45;100.00;98592.50;5039954;28;20088;-74
2023/03/09 06:45:46;;;;;;;;;;;;;;;5.59;100.00;98588.69;5020107;28;20027;-74
2023/03/09 06:48:12;;;;;;;;;;;;;;;5.55;100.00;98592.53;5030134;28;19920;-74
2023/03/09 06:50:39;;;;;;;;;;;;;;;5.64;100.00;98597.81;5021814;28;20112;-74
2023/03/09 06:53:05;;;;;;;;;;;;;;;5.65;100.00;98601.25;5035357;28;20436;-73
2023/03/09 06:55:30;;;;;;;;;;;;;;;5.68;100.00;98590.50;5024877;28;19952;-74
2023/03/09 06:57:58;;;;;;;;;;;;;;;5.73;100.00;98586.50;5024082;28;19928;-76
2023/03/09 07:00:24;;;;;;;;;;;;;;;5.76;100.00;98590.66;5015300;28;19921;-75
2023/03/09 07:02:54;;;;;;;;;;;;;;;5.83;100.00;98593.56;5030829;28;19924;-78
2023/03/09 07:05:20;;;;;;;;;;;;;;;5.94;100.00;98599.53;5034559;28;19925;-76
2023/03/09 07:07:45;;;;;;;;;;;;;;;6.00;100.00;98608.63;5039187;28;20431;-77
2023/03/09 07:10:12;;;;;;;;;;;;;;;6.05;100.00;98607.25;5033969;28;19921;-77
2023/03/09 07:12:37;;;;;;;;;;;;;;;5.94;100.00;98620.47;5042048;28;19929;-77
2023/03/09 07:15:04;;;;;;;;;;;;;;;5.99;100.00;98622.69;5039962;28;19946;-77
2023/03/09 07:17:30;;;;;;;;;;;;;;;6.09;100.00;98624.34;5042332;28;19928;-77
2023/03/09 07:19:56;;;;;;;;;;;;;;;6.18;100.00;98633.19;5034906;28;19928;-76
2023/03/09 07:22:22;;;;;;;;;;;;;;;6.29;100.00;98629.59;5041263;28;20023;-77
2023/03/09 07:24:47;;;;;;;;;;;;;;;6.40;100.00;98626.81;5026859;28;20011;-76
2023/03/09 07:27:13;;;;;;;;;;;;;;;6.40;100.00;98621.56;5042054;28;19987;-77
2023/03/09 07:29:40;;;;;;;;;;;;;;;6.46;100.00;98621.03;5039203;28;19921;-77
2023/03/09 07:32:05;;;;;;;;;;;;;;;6.51;100.00;98617.00;5042529;28;19927;-78
2023/03/09 07:34:31;;;;;;;;;;;;;;;6.54;100.00;98618.50;5038763;28;20004;-77
2023/03/09 07:36:57;;;;;;;;;;;;;;;6.60;100.00;98601.44;5041815;28;19921;-77
2023/03/09 07:39:22;;;;;;;;;;;;;;;6.50;100.00;98609.28;5040661;28;19929;-77
2023/03/09 07:41:48;;;;;;;;;;;;;;;6.56;100.00;98606.09;5040338;28;19921;-76
2023/03/09 07:44:13;;;;;;;;;;;;;;;6.75;100.00;98605.25;5042236;28;19921;-77
2023/03/09 07:46:38;;;;;;;;;;;;;;;6.75;100.00;98606.06;5039067;28;19921;-78
2023/03/09 07:49:04;;;;;;;;;;;;;;;6.81;100.00;98610.75;5041955;28;19921;-78
2023/03/09 07:51:29;;;;;;;;;;;;;;;6.85;100.00;98612.13;5032480;28;19933;-78
2023/03/09 07:53:55;;;;;;;;;;;;;;;7.10;100.00;98609.84;5040654;28;19927;-77
2023/03/09 07:56:20;;;;;;;;;;;;;;;7.10;100.00;98609.84;5040408;28;19928;-78
2023/03/09 07:58:46;;;;;;;;;;;;;;;7.19;100.00;98617.66;5041184;28;19932;-76
2023/03/09 08:01:13;;;;;;;;;;;;;;;7.28;100.00;98613.34;5040887;28;19921;-75
2023/03/09 08:03:38;;;;;;;;;;;;;;;7.39;100.00;98624.50;5049062;28;19928;-75
2023/03/09 08:06:05;;;;;;;;;;;;;;;7.37;100.00;98629.03;5043027;28;19921;-76
2023/03/09 08:08:31;;;;;;;;;;;;;;;7.51;100.00;98625.13;5026813;28;19925;-74
2023/03/09 08:10:57;;;;;;;;;;;;;;;7.67;100.00;98635.81;5043120;28;19979;-76
2023/03/09 08:13:23;;;;;;;;;;;;;;;7.77;100.00;98636.59;5043351;28;20088;-75
2023/03/09 08:15:48;;;;;;;;;;;;;;;7.90;100.00;98635.38;5024660;28;19980;-76
2023/03/09 08:18:14;;;;;;;;;;;;;;;7.90;100.00;98632.75;5041523;28;19925;-77
2023/03/09 08:20:39;;;;;;;;;;;;;;;7.95;100.00;98639.22;5040266;28;20329;-74
2023/03/09 08:23:05;;;;;;;;;;;;;;;8.06;100.00;98643.47;5038254;28;19921;-76
2023/03/09 08:25:31;;;;;;;;;;;;;;;8.16;100.00;98647.66;5036409;28;19925;-78
2023/03/09 08:27:56;;;;;;;;;;;;;;;8.25;100.00;98640.66;5040372;28;19990;-76
2023/03/09 08:30:22;;;;;;;;;;;;;;;8.28;100.00;98645.63;5028693;28;19986;-75
2023/03/09 08:32:48;;;;;;;;;;;;;;;8.30;100.00;98633.22;5042960;28;20382;-75
2023/03/09 08:35:16;;;;;;;;;;;;;;;8.32;100.00;98636.50;5045155;28;19924;-77
2023/03/09 08:37:42;;;;;;;;;;;;;;;8.33;100.00;98632.06;5042134;28;19932;-76
2023/03/09 08:40:08;;;;;;;;;;;;;;;8.35;100.00;98641.47;5045246;28;20280;-77
2023/03/09 08:42:33;;;;;;;;;;;;;;;8.37;100.00;98644.75;5041488;28;19921;-77
2023/03/09 08:44:59;;;;;;;;;;;;;;;8.60;100.00;98639.84;5033182;28;19971;-76
2023/03/09 08:47:25;;;;;;;;;;;;;;;8.65;100.00;98642.88;5042699;28;19983;-77
2023/03/09 08:49:50;;;;;;;;;;;;;;;8.74;100.00;98641.94;5041666;28;19934;-77
2023/03/09 08:52:15;;;;;;;;;;;;;;;8.84;100.00;98633.94;5042604;28;19929;-77
2023/03/09 08:54:41;;;;;;;;;;;;;;;8.96;100.00;98645.88;5040264;28;19960;-76
2023/03/09 08:57:07;;;;;;;;;;;;;;;9.14;100.00;98651.91;5029308;28;19917;-76
2023/03/09 08:59:32;;;;;;;;;;;;;;;9.21;100.00;98649.47;5026403;28;19925;-76
2023/03/09 09:01:58;;;;;;;;;;;;;;;9.39;100.00;98643.16;5046636;28;20342;-78
2023/03/09 09:04:24;;;;;;;;;;;;;;;9.48;100.00;98636.16;5039334;28;19929;-76
2023/03/09 09:06:49;;;;;;;;;;;;;;;9.44;100.00;98635.63;5041435;28;19974;-77
2023/03/09 09:09:15;;;;;;;;;;;;;;;9.51;100.00;98638.44;5044032;28;19924;-76
2023/03/09 09:11:40;;;;;;;;;;;;;;;9.60;100.00;98652.50;5042276;28;19927;-77
2023/03/09 09:14:05;;;;;;;;;;;;;;;9.56;100.00;98648.50;5040677;28;19921;-76
2023/03/09 09:16:31;;;;;;;;;;;;;;;9.64;100.00;98657.28;5039535;28;19921;-75
2023/03/09 09:18:56;;;;;;;;;;;;;;;9.65;100.00;98658.09;5039453;28;19925;-76
2023/03/09 09:21:22;;;;;;;;;;;;;;;9.77;100.00;98652.41;5044385;28;19932;-77
2023/03/09 09:23:49;;;;;;;;;;;;;;;9.82;100.00;98659.81;5045104;28;19970;-77
2023/03/09 09:26:15;;;;;;;;;;;;;;;9.93;100.00;98651.59;5041468;28;20015;-75
2023/03/09 09:28:41;;;;;;;;;;;;;;;10.08;100.00;98657.88;5045105;28;20262;-77
2023/03/09 09:31:07;;;;;;;;;;;;;;;10.24;100.00;98671.16;5032656;28;19975;-77
2023/03/09 09:33:36;;;;;;;;;;;;;;;10.43;100.00;98669.19;5024392;28;19980;-77
2023/03/09 09:36:05;;;;;;;;;;;;;;;10.56;100.00;98664.25;5041807;28;19921;-76
2023/03/09 09:38:33;;;;;;;;;;;;;;;10.70;100.00;98655.69;5041436;28;19921;-76
2023/03/09 09:41:02;;;;;;;;;;;;;;;10.84;100.00;98670.84;5043220;28;20004;-76
2023/03/09 09:43:29;;;;;;;;;;;;;;;10.95;100.00;98667.91;5025382;28;19962;-78
2023/03/09 09:45:56;;;;;;;;;;;;;;;11.13;100.00;98661.59;5041566;28;19929;-74
2023/03/09 09:48:22;;;;;;;;;;;;;;;11.29;100.00;98661.56;5038852;28;19928;-76
2023/03/09 09:51:06;;;;;;;;;;;;;;;11.45;100.00;98666.78;5042288;28;19928;-77
2023/03/09 09:53:31;;;;;;;;;;;;;;;11.46;100.00;98669.28;5042507;28;20242;-78
2023/03/09 09:55:59;;;;;;;;;;;;;;;11.54;100.00;98665.78;5040999;28;19929;-77
2023/03/09 09:58:32;;;;;;;;;;;;;;;11.71;100.00;98662.09;5040684;28;20528;-75
2023/03/09 10:01:00;;;;;;;;;;;;;;;11.83;100.00;98663.38;5041046;28;19921;-77
2023/03/09 10:03:28;;;;;;;;;;;;;;;12.02;100.00;98640.13;5039669;28;19925;-76
2023/03/09 10:05:56;;;;;;;;;;;;;;;12.00;100.00;98645.63;5041259;28;19927;-76
2023/03/09 10:08:28;;;;;;;;;;;;;;;12.06;100.00;98650.22;5042351;28;19928;-77
2023/03/09 10:10:56;;;;;;;;;;;;;;;12.03;100.00;98639.16;5028874;28;20266;-77
2023/03/09 10:13:34;;;;;;;;;;;;;;;12.06;100.00;98638.81;5039960;28;20386;-76
2023/03/09 10:16:03;;;;;;;;;;;;;;;12.11;100.00;98623.25;5042125;28;20328;-75
2023/03/09 10:18:33;;;;;;;;;;;;;;;12.25;100.00;98627.78;5035031;28;20048;-76
2023/03/09 10:20:59;;;;;;;;;;;;;;;12.25;100.00;98622.50;5038518;28;19921;-77
2023/03/09 10:23:32;;;;;;;;;;;;;;;12.33;100.00;98625.06;5035128;28;20032;-75
2023/03/09 10:26:02;;;;;;;;;;;;;;;12.40;100.00;98625.19;5034351;28;20401;-75
2023/03/09 10:28:32;;;;;;;;;;;;;;;12.39;100.00;98624.38;5035519;28;19929;-77
2023/03/09 10:31:03;;;;;;;;;;;;;;;12.40;100.00;98626.03;5034579;28;19925;-76
2023/03/09 10:33:42;;;;;;;;;;;;;;;12.39;100.00;98605.84;5035805;28;19921;-76
2023/03/09 10:36:12;;;;;;;;;;;;;;;12.47;100.00;98616.38;5040966;28;20262;-78
2023/03/09 10:38:39;;;;;;;;;;;;;;;12.49;100.00;98610.88;5039077;28;19929;-78
2023/03/09 10:41:10;;;;;;;;;;;;;;;12.54;100.00;98604.09;5043100;28;19933;-78
2023/03/09 10:43:36;;;;;;;;;;;;;;;12.57;100.00;98609.00;5025170;28;20027;-78
2023/03/09 10:46:16;;;;;;;;;;;;;;;12.61;100.00;98599.69;5040680;28;19999;-78
2023/03/09 10:48:42;;;;;;;;;;;;;;;12.79;100.00;98587.97;5038368;28;20972;-76
2023/03/09 10:51:20;;;;;;;;;;;;;;;12.87;100.00;98586.06;5039297;28;20372;-76
2023/03/09 10:53:48;;;;;;;;;;;;;;;13.01;100.00;98581.81;5039035;28;19928;-76
2023/03/09 10:56:13;;;;;;;;;;;;;;;13.13;100.00;98576.91;5042318;28;19928;-75
2023/03/09 10:58:39;;;;;;;;;;;;;;;13.24;100.00;98582.56;5038513;28;19925;-78
2023/03/09 11:01:18;;;;;;;;;;;;;;;13.34;100.00;98596.34;5041491;28;19921;-75
2023/03/09 11:03:44;;;;;;;;;;;;;;;13.43;100.00;98592.59;5038820;28;19952;-76
2023/03/09 11:06:12;;;;;;;;;;;;;;;13.59;99.47;98601.38;5042032;28;20012;-75
2023/03/09 11:08:40;;;;;;;;;;;;;;;13.66;97.49;98602.28;5038624;28;20321;-76
2023/03/09 11:11:06;;;;;;;;;;;;;;;13.69;99.19;98601.88;5041248;28;20277;-75
2023/03/09 11:13:32;;;;;;;;;;;;;;;13.72;100.00;98585.63;5039637;28;19921;-76
2023/03/09 11:16:04;;;;;;;;;;;;;;;13.81;98.29;98589.78;5040570;28;19924;-76
2023/03/09 11:18:30;;;;;;;;;;;;;;;13.92;97.86;98591.97;5038216;28;20235;-75
2023/03/09 11:20:55;;;;;;;;;;;;;;;14.03;97.99;98596.78;5040027;28;20625;-76
2023/03/09 11:23:44;;;;;;;;;;;;;;;14.11;97.18;98587.88;5041492;28;20416;-77
2023/03/09 11:26:18;;;;;;;;;;;;;;;14.19;94.20;98588.59;5042534;28;19944;-77
2023/03/09 11:29:07;;;;;;;;;;;;;;;14.29;90.60;98578.47;5039717;28;20319;-76
2023/03/09 11:31:40;;;;;;;;;;;;;;;14.41;91.86;98570.03;5029254;28;19967;-77
2023/03/09 11:34:07;;;;;;;;;;;;;;;14.49;92.48;98556.63;5042571;28;19929;-77
2023/03/09 11:36:46;;;;;;;;;;;;;;;14.56;90.49;98553.00;5046826;28;19925;-76
2023/03/09 11:39:18;;;;;;;;;;;;;;;14.67;89.85;98554.31;5044058;28;19925;-75
2023/03/09 11:41:45;;;;;;;;;;;;;;;14.75;90.19;98549.69;5050312;28;20366;-77
2023/03/09 11:44:22;;;;;;;;;;;;;;;14.88;89.96;98546.31;5046230;28;19997;-78
2023/03/09 11:46:50;;;;;;;;;;;;;;;14.98;88.22;98557.38;5045214;28;19921;-77
2023/03/09 11:49:23;;;;;;;;;;;;;;;15.08;88.17;98541.09;5045015;28;20349;-77
2023/03/09 11:51:49;;;;;;;;;;;;;;;15.23;86.36;98543.63;5044505;28;19921;-77
2023/03/09 11:54:30;;;;;;;;;;;;;;;15.35;83.75;98547.38;5046465;28;19921;-76
2023/03/09 11:56:59;;;;;;;;;;;;;;;15.46;82.51;98541.50;5048408;28;19982;-76
2023/03/09 11:59:33;;;;;;;;;;;;;;;15.55;81.54;98532.38;5045585;28;19975;-75
2023/03/09 12:02:14;;;;;;;;;;;;;;;15.62;81.17;98530.53;5045665;28;19971;-77
2023/03/09 12:04:45;;;;;;;;;;;;;;;15.70;81.39;98522.38;5047908;28;20444;-77
2023/03/09 12:07:10;;;;;;;;;;;;;;;15.83;82.20;98522.44;5046340;28;19921;-76
2023/03/09 12:09:54;;;;;;;;;;;;;;;15.95;83.12;98512.84;5048081;28;19966;-76
2023/03/09 12:12:20;;;;;;;;;;;;;;;16.14;83.20;98505.09;5026984;28;19921;-77
2023/03/09 12:14:49;;;;;;;;;;;;;;;16.26;82.80;98503.41;5045758;28;20340;-75
2023/03/09 12:17:16;;;;;;;;;;;;;;;16.36;83.46;98503.84;5026167;28;19932;-76
2023/03/09 12:19:46;;;;;;;;;;;;;;;16.53;84.48;98494.41;5039430;28;19960;-75
2023/03/09 12:22:30;;;;;;;;;;;;;;;16.72;84.52;98487.47;5045136;28;19959;-75
2023/03/09 12:24:58;;;;;;;;;;;;;;;16.93;84.42;98481.88;5042834;28;19965;-76
2023/03/09 12:27:24;;;;;;;;;;;;;;;17.12;85.05;98483.66;5043588;28;19978;-76
2023/03/09 12:29:51;;;;;;;;;;;;;;;17.25;85.24;98471.31;5042069;28;20353;-77
2023/03/09 12:32:18;;;;;;;;;;;;;;;17.33;85.79;98468.41;5044782;28;19928;-75
2023/03/09 12:34:45;;;;;;;;;;;;;;;17.43;86.01;98468.78;5041686;28;19964;-76
2023/03/09 12:37:28;;;;;;;;;;;;;;;17.52;84.54;98462.97;5045400;28;19921;-77
2023/03/09 12:39:57;;;;;;;;;;;;;;;17.59;85.25;98458.44;5042111;28;20023;-76
2023/03/09 12:42:26;;;;;;;;;;;;;;;17.70;84.99;98458.81;5042700;28;20007;-78
2023/03/09 12:44:51;;;;;;;;;;;;;;;17.80;85.38;98453.81;5041651;28;19921;-76
2023/03/09 12:47:20;;;;;;;;;;;;;;;17.87;85.23;98454.59;5043092;28;20281;-75